sensor_id;sensor_type;location;lat;lon;timestamp;temperature;humidity
3919;DHT22;1974;48.670;8.994;2022-09-24T00:00:40;12.40;99.90
3919;DHT22;1974;48.670;8.994;2022-09-24T00:03:07;12.40;99.90
3919;DHT22;1974;48.670;8.994;2022-09-24T00:05:36;12.40;99.90
3919;DHT22;1974;48.670;8.994;2022-09-24T00:08:02;12.40;99.90
3919;DHT22;1974;48.670;8.994;2022-09-24T00:10:29;12.40;99.90
3919;DHT22;1974;48.670;8.994;2022-09-24T00:12:57;12.40;99.90
3919;DHT22;1974;48.670;8.994;2022-09-24T00:15:24;12.40;99.90
3919;DHT22;1974;48.670;8.994;2022-09-24T00:17:50;12.40;99.90
3919;DHT22;1974;48.670;8.994;2022-09-24T00:20:17;12.40;99.90
3919;DHT22;1974;48.670;8.994;2022-09-24T00:22:47;12.30;99.90
3919;DHT22;1974;48.670;8.994;2022-09-24T00:25:13;12.30;99.90
3919;DHT22;1974;48.670;8.994;2022-09-24T00:27:59;12.30;99.90
3919;DHT22;1974;48.670;8.994;2022-09-24T00:30:26;12.30;99.90
3919;DHT22;1974;48.670;8.994;2022-09-24T00:32:53;12.20;99.90
3919;DHT22;1974;48.670;8.994;2022-09-24T00:35:19;12.20;99.90
3919;DHT22;1974;48.670;8.994;2022-09-24T00:37:46;12.10;99.90
3919;DHT22;1974;48.670;8.994;2022-09-24T00:40:13;12.10;99.90
3919;DHT22;1974;48.670;8.994;2022-09-24T00:42:41;12.10;99.90
3919;DHT22;1974;48.670;8.994;2022-09-24T00:45:10;12.10;99.90
3919;DHT22;1974;48.670;8.994;2022-09-24T00:47:38;12.10;99.90
3919;DHT22;1974;48.670;8.994;2022-09-24T00:50:15;12.10;99.90
3919;DHT22;1974;48.670;8.994;2022-09-24T00:52:46;12.00;99.90
3919;DHT22;1974;48.670;8.994;2022-09-24T00:55:14;12.00;99.90
3919;DHT22;1974;48.670;8.994;2022-09-24T00:57:42;12.00;99.90
3919;DHT22;1974;48.670;8.994;2022-09-24T01:00:13;11.90;99.90
3919;DHT22;1974;48.670;8.994;2022-09-24T01:02:43;11.90;99.90
3919;DHT22;1974;48.670;8.994;2022-09-24T01:05:11;11.80;99.90
3919;DHT22;1974;48.670;8.994;2022-09-24T01:07:38;11.80;99.90
3919;DHT22;1974;48.670;8.994;2022-09-24T01:10:05;11.80;99.90
3919;DHT22;1974;48.670;8.994;2022-09-24T01:12:41;11.70;99.90
3919;DHT22;1974;48.670;8.994;2022-09-24T01:15:20;11.70;99.90
3919;DHT22;1974;48.670;8.994;2022-09-24T01:17:55;11.60;99.90
3919;DHT22;1974;48.670;8.994;2022-09-24T01:20:49;11.60;99.90
3919;DHT22;1974;48.670;8.994;2022-09-24T01:23:45;11.60;99.90
3919;DHT22;1974;48.670;8.994;2022-09-24T01:26:32;11.60;99.90
3919;DHT22;1974;48.670;8.994;2022-09-24T01:29:27;11.50;99.90
3919;DHT22;1974;48.670;8.994;2022-09-24T01:31:59;11.50;99.90
3919;DHT22;1974;48.670;8.994;2022-09-24T01:34:33;11.50;99.90
3919;DHT22;1974;48.670;8.994;2022-09-24T01:37:02;11.50;99.90
3919;DHT22;1974;48.670;8.994;2022-09-24T01:39:30;11.50;99.90
3919;DHT22;1974;48.670;8.994;2022-09-24T01:41:59;11.50;99.90
3919;DHT22;1974;48.670;8.994;2022-09-24T01:44:27;11.40;99.90
3919;DHT22;1974;48.670;8.994;2022-09-24T01:46:55;11.30;99.90
3919;DHT22;1974;48.670;8.994;2022-09-24T01:49:22;11.30;99.90
3919;DHT22;1974;48.670;8.994;2022-09-24T01:51:52;11.30;99.90
3919;DHT22;1974;48.670;8.994;2022-09-24T01:54:23;11.30;99.90
3919;DHT22;1974;48.670;8.994;2022-09-24T01:56:52;11.30;99.90
3919;DHT22;1974;48.670;8.994;2022-09-24T01:59:24;11.30;99.90
3919;DHT22;1974;48.670;8.994;2022-09-24T02:01:59;11.20;99.90
3919;DHT22;1974;48.670;8.994;2022-09-24T02:04:29;11.20;99.90
3919;DHT22;1974;48.670;8.994;2022-09-24T02:07:02;11.20;99.90
3919;DHT22;1974;48.670;8.994;2022-09-24T02:09:31;11.20;99.90
3919;DHT22;1974;48.670;8.994;2022-09-24T02:12:03;11.20;99.90
3919;DHT22;1974;48.670;8.994;2022-09-24T02:14:35;11.20;99.90
3919;DHT22;1974;48.670;8.994;2022-09-24T02:17:06;11.20;99.90
3919;DHT22;1974;48.670;8.994;2022-09-24T02:19:35;11.20;99.90
3919;DHT22;1974;48.670;8.994;2022-09-24T02:22:05;11.30;99.90
3919;DHT22;1974;48.670;8.994;2022-09-24T02:24:36;11.30;99.90
3919;DHT22;1974;48.670;8.994;2022-09-24T02:27:06;11.30;99.90
3919;DHT22;1974;48.670;8.994;2022-09-24T02:29:33;11.30;99.90
3919;DHT22;1974;48.670;8.994;2022-09-24T02:32:01;11.40;99.90
3919;DHT22;1974;48.670;8.994;2022-09-24T02:34:33;11.40;99.90
3919;DHT22;1974;48.670;8.994;2022-09-24T02:37:05;11.30;99.90
3919;DHT22;1974;48.670;8.994;2022-09-24T02:39:32;11.40;99.90
3919;DHT22;1974;48.670;8.994;2022-09-24T02:41:59;11.30;99.90
3919;DHT22;1974;48.670;8.994;2022-09-24T02:44:26;11.40;99.90
3919;DHT22;1974;48.670;8.994;2022-09-24T02:46:55;11.40;99.90
3919;DHT22;1974;48.670;8.994;2022-09-24T02:49:22;11.40;99.90
3919;DHT22;1974;48.670;8.994;2022-09-24T02:51:50;11.40;99.90
3919;DHT22;1974;48.670;8.994;2022-09-24T02:54:17;11.50;99.90
3919;DHT22;1974;48.670;8.994;2022-09-24T02:56:43;11.50;99.90
3919;DHT22;1974;48.670;8.994;2022-09-24T02:59:10;11.50;99.90
3919;DHT22;1974;48.670;8.994;2022-09-24T03:01:37;11.60;99.90
3919;DHT22;1974;48.670;8.994;2022-09-24T03:04:04;11.60;99.90
3919;DHT22;1974;48.670;8.994;2022-09-24T03:06:31;11.60;99.90
3919;DHT22;1974;48.670;8.994;2022-09-24T03:08:59;11.60;99.90
3919;DHT22;1974;48.670;8.994;2022-09-24T03:11:26;11.60;99.90
3919;DHT22;1974;48.670;8.994;2022-09-24T03:13:53;11.70;99.90
3919;DHT22;1974;48.670;8.994;2022-09-24T03:16:20;11.70;99.90
3919;DHT22;1974;48.670;8.994;2022-09-24T03:18:47;11.70;99.90
3919;DHT22;1974;48.670;8.994;2022-09-24T03:21:15;11.70;99.90
3919;DHT22;1974;48.670;8.994;2022-09-24T03:23:42;11.70;99.90
3919;DHT22;1974;48.670;8.994;2022-09-24T03:26:11;11.70;99.90
3919;DHT22;1974;48.670;8.994;2022-09-24T03:28:38;11.70;99.90
3919;DHT22;1974;48.670;8.994;2022-09-24T03:31:06;11.70;99.90
3919;DHT22;1974;48.670;8.994;2022-09-24T03:33:34;11.70;99.90
3919;DHT22;1974;48.670;8.994;2022-09-24T03:36:04;11.70;99.90
3919;DHT22;1974;48.670;8.994;2022-09-24T03:38:33;11.70;99.90
3919;DHT22;1974;48.670;8.994;2022-09-24T03:41:00;11.70;99.90
3919;DHT22;1974;48.670;8.994;2022-09-24T03:43:28;11.70;99.90
3919;DHT22;1974;48.670;8.994;2022-09-24T03:45:56;11.70;99.90
3919;DHT22;1974;48.670;8.994;2022-09-24T03:48:23;11.70;99.90
3919;DHT22;1974;48.670;8.994;2022-09-24T03:50:51;11.70;99.90
3919;DHT22;1974;48.670;8.994;2022-09-24T03:53:18;11.70;99.90
3919;DHT22;1974;48.670;8.994;2022-09-24T03:55:47;11.70;99.90
3919;DHT22;1974;48.670;8.994;2022-09-24T03:58:15;11.80;99.90
3919;DHT22;1974;48.670;8.994;2022-09-24T04:00:43;11.80;99.90
3919;DHT22;1974;48.670;8.994;2022-09-24T04:03:10;11.70;99.90
3919;DHT22;1974;48.670;8.994;2022-09-24T04:05:36;11.70;99.90
3919;DHT22;1974;48.670;8.994;2022-09-24T04:08:05;11.70;99.90
3919;DHT22;1974;48.670;8.994;2022-09-24T04:10:31;11.70;99.90
3919;DHT22;1974;48.670;8.994;2022-09-24T04:12:58;11.70;99.90
3919;DHT22;1974;48.670;8.994;2022-09-24T04:15:26;11.70;99.90
3919;DHT22;1974;48.670;8.994;2022-09-24T04:17:56;11.80;99.90
3919;DHT22;1974;48.670;8.994;2022-09-24T04:20:24;11.80;99.90
3919;DHT22;1974;48.670;8.994;2022-09-24T04:22:53;11.80;99.90
3919;DHT22;1974;48.670;8.994;2022-09-24T04:25:21;11.80;99.90
3919;DHT22;1974;48.670;8.994;2022-09-24T04:27:52;11.80;99.90
3919;DHT22;1974;48.670;8.994;2022-09-24T04:30:19;11.80;99.90
3919;DHT22;1974;48.670;8.994;2022-09-24T04:32:46;11.80;99.90
3919;DHT22;1974;48.670;8.994;2022-09-24T04:35:14;11.70;99.90
3919;DHT22;1974;48.670;8.994;2022-09-24T04:37:41;11.70;99.90
3919;DHT22;1974;48.670;8.994;2022-09-24T04:40:08;11.70;99.90
3919;DHT22;1974;48.670;8.994;2022-09-24T04:42:37;11.70;99.90
3919;DHT22;1974;48.670;8.994;2022-09-24T04:45:05;11.70;99.90
3919;DHT22;1974;48.670;8.994;2022-09-24T04:47:32;11.70;99.90
3919;DHT22;1974;48.670;8.994;2022-09-24T04:49:59;11.70;99.90
3919;DHT22;1974;48.670;8.994;2022-09-24T04:52:28;11.70;99.90
3919;DHT22;1974;48.670;8.994;2022-09-24T04:54:57;11.70;99.90
3919;DHT22;1974;48.670;8.994;2022-09-24T04:57:24;11.70;99.90
3919;DHT22;1974;48.670;8.994;2022-09-24T04:59:52;11.70;99.90
3919;DHT22;1974;48.670;8.994;2022-09-24T05:02:18;11.70;99.90
3919;DHT22;1974;48.670;8.994;2022-09-24T05:04:45;11.70;99.90
3919;DHT22;1974;48.670;8.994;2022-09-24T05:07:12;11.70;99.90
3919;DHT22;1974;48.670;8.994;2022-09-24T05:09:40;11.80;99.90
3919;DHT22;1974;48.670;8.994;2022-09-24T05:12:07;11.80;99.90
3919;DHT22;1974;48.670;8.994;2022-09-24T05:14:34;11.80;99.90
3919;DHT22;1974;48.670;8.994;2022-09-24T05:17:00;11.80;99.90
3919;DHT22;1974;48.670;8.994;2022-09-24T05:19:27;11.80;99.90
3919;DHT22;1974;48.670;8.994;2022-09-24T05:21:54;11.80;99.90
3919;DHT22;1974;48.670;8.994;2022-09-24T05:24:20;11.80;99.90
3919;DHT22;1974;48.670;8.994;2022-09-24T05:26:49;11.90;99.90
3919;DHT22;1974;48.670;8.994;2022-09-24T05:29:33;11.90;99.90
3919;DHT22;1974;48.670;8.994;2022-09-24T05:32:02;11.90;99.90
3919;DHT22;1974;48.670;8.994;2022-09-24T05:34:30;11.90;99.90
3919;DHT22;1974;48.670;8.994;2022-09-24T05:36:56;11.90;99.90
3919;DHT22;1974;48.670;8.994;2022-09-24T05:39:24;11.90;99.90
3919;DHT22;1974;48.670;8.994;2022-09-24T05:41:52;11.90;99.90
3919;DHT22;1974;48.670;8.994;2022-09-24T05:44:19;11.90;99.90
3919;DHT22;1974;48.670;8.994;2022-09-24T05:46:46;11.90;99.90
3919;DHT22;1974;48.670;8.994;2022-09-24T05:49:13;12.00;99.90
3919;DHT22;1974;48.670;8.994;2022-09-24T05:51:39;12.00;99.90
3919;DHT22;1974;48.670;8.994;2022-09-24T05:54:06;12.00;99.90
3919;DHT22;1974;48.670;8.994;2022-09-24T05:56:33;12.00;99.90
3919;DHT22;1974;48.670;8.994;2022-09-24T05:59:02;12.00;99.90
3919;DHT22;1974;48.670;8.994;2022-09-24T06:01:29;12.00;99.90
3919;DHT22;1974;48.670;8.994;2022-09-24T06:03:55;12.10;99.90
3919;DHT22;1974;48.670;8.994;2022-09-24T06:06:22;12.10;99.90
3919;DHT22;1974;48.670;8.994;2022-09-24T06:08:50;12.20;99.90
3919;DHT22;1974;48.670;8.994;2022-09-24T06:11:17;12.20;99.90
3919;DHT22;1974;48.670;8.994;2022-09-24T06:13:44;12.30;99.90
3919;DHT22;1974;48.670;8.994;2022-09-24T06:16:12;12.40;99.90
3919;DHT22;1974;48.670;8.994;2022-09-24T06:18:40;12.40;99.90
3919;DHT22;1974;48.670;8.994;2022-09-24T06:21:09;12.50;99.90
3919;DHT22;1974;48.670;8.994;2022-09-24T06:23:37;12.50;99.90
3919;DHT22;1974;48.670;8.994;2022-09-24T06:26:05;12.60;99.90
3919;DHT22;1974;48.670;8.994;2022-09-24T06:28:33;12.70;99.90
3919;DHT22;1974;48.670;8.994;2022-09-24T06:31:00;12.70;99.90
3919;DHT22;1974;48.670;8.994;2022-09-24T06:33:28;12.80;99.90
3919;DHT22;1974;48.670;8.994;2022-09-24T06:35:58;12.80;99.90
3919;DHT22;1974;48.670;8.994;2022-09-24T06:38:25;12.80;99.90
3919;DHT22;1974;48.670;8.994;2022-09-24T06:40:58;12.80;99.90
3919;DHT22;1974;48.670;8.994;2022-09-24T06:43:25;12.80;99.90
3919;DHT22;1974;48.670;8.994;2022-09-24T06:45:54;12.80;99.90
3919;DHT22;1974;48.670;8.994;2022-09-24T06:48:21;12.80;99.90
3919;DHT22;1974;48.670;8.994;2022-09-24T06:50:49;12.80;99.90
3919;DHT22;1974;48.670;8.994;2022-09-24T06:53:16;12.80;99.90
3919;DHT22;1974;48.670;8.994;2022-09-24T06:55:43;12.80;99.90
3919;DHT22;1974;48.670;8.994;2022-09-24T06:58:11;12.80;99.90
3919;DHT22;1974;48.670;8.994;2022-09-24T07:00:39;12.80;99.90
3919;DHT22;1974;48.670;8.994;2022-09-24T07:03:06;12.90;99.90
3919;DHT22;1974;48.670;8.994;2022-09-24T07:05:33;12.90;99.90
3919;DHT22;1974;48.670;8.994;2022-09-24T07:08:01;12.90;99.90
3919;DHT22;1974;48.670;8.994;2022-09-24T07:10:28;13.00;99.90
3919;DHT22;1974;48.670;8.994;2022-09-24T07:12:55;13.00;99.90
3919;DHT22;1974;48.670;8.994;2022-09-24T07:15:22;13.10;99.90
3919;DHT22;1974;48.670;8.994;2022-09-24T07:17:53;13.10;99.90
3919;DHT22;1974;48.670;8.994;2022-09-24T07:20:20;13.20;99.90
3919;DHT22;1974;48.670;8.994;2022-09-24T07:22:47;13.30;99.90
3919;DHT22;1974;48.670;8.994;2022-09-24T07:25:15;13.30;99.90
3919;DHT22;1974;48.670;8.994;2022-09-24T07:27:42;13.30;99.90
3919;DHT22;1974;48.670;8.994;2022-09-24T07:30:10;13.20;99.90
3919;DHT22;1974;48.670;8.994;2022-09-24T07:32:36;13.20;99.90
3919;DHT22;1974;48.670;8.994;2022-09-24T07:35:04;13.20;99.90
3919;DHT22;1974;48.670;8.994;2022-09-24T07:37:31;13.30;99.90
3919;DHT22;1974;48.670;8.994;2022-09-24T07:39:58;13.30;99.90
3919;DHT22;1974;48.670;8.994;2022-09-24T07:42:26;13.30;99.90
3919;DHT22;1974;48.670;8.994;2022-09-24T07:44:53;13.20;99.90
3919;DHT22;1974;48.670;8.994;2022-09-24T07:47:21;13.20;99.90
3919;DHT22;1974;48.670;8.994;2022-09-24T07:49:48;13.20;99.90
3919;DHT22;1974;48.670;8.994;2022-09-24T07:52:14;13.30;99.90
3919;DHT22;1974;48.670;8.994;2022-09-24T07:54:41;13.30;99.90
3919;DHT22;1974;48.670;8.994;2022-09-24T07:57:11;13.40;99.90
3919;DHT22;1974;48.670;8.994;2022-09-24T07:59:40;13.40;99.90
3919;DHT22;1974;48.670;8.994;2022-09-24T08:02:13;13.50;99.90
3919;DHT22;1974;48.670;8.994;2022-09-24T08:04:41;13.60;99.90
3919;DHT22;1974;48.670;8.994;2022-09-24T08:07:09;13.70;99.90
3919;DHT22;1974;48.670;8.994;2022-09-24T08:09:36;13.70;99.90
3919;DHT22;1974;48.670;8.994;2022-09-24T08:12:03;13.60;99.90
3919;DHT22;1974;48.670;8.994;2022-09-24T08:14:30;13.50;99.90
3919;DHT22;1974;48.670;8.994;2022-09-24T08:16:58;13.40;99.90
3919;DHT22;1974;48.670;8.994;2022-09-24T08:19:26;13.40;99.90
3919;DHT22;1974;48.670;8.994;2022-09-24T08:21:55;13.30;99.90
3919;DHT22;1974;48.670;8.994;2022-09-24T08:24:25;13.20;99.90
3919;DHT22;1974;48.670;8.994;2022-09-24T08:26:51;13.10;99.90
3919;DHT22;1974;48.670;8.994;2022-09-24T08:29:18;13.10;99.90
3919;DHT22;1974;48.670;8.994;2022-09-24T08:31:45;13.10;99.90
3919;DHT22;1974;48.670;8.994;2022-09-24T08:34:13;13.10;99.90
3919;DHT22;1974;48.670;8.994;2022-09-24T08:36:40;13.10;99.90
3919;DHT22;1974;48.670;8.994;2022-09-24T08:39:07;13.10;99.90
3919;DHT22;1974;48.670;8.994;2022-09-24T08:41:46;13.00;99.90
3919;DHT22;1974;48.670;8.994;2022-09-24T08:44:19;12.90;99.90
3919;DHT22;1974;48.670;8.994;2022-09-24T08:47:04;13.00;99.90
3919;DHT22;1974;48.670;8.994;2022-09-24T08:50:11;13.00;99.90
3919;DHT22;1974;48.670;8.994;2022-09-24T08:52:56;13.10;99.90
3919;DHT22;1974;48.670;8.994;2022-09-24T08:55:29;13.10;99.90
3919;DHT22;1974;48.670;8.994;2022-09-24T08:58:03;13.10;99.90
3919;DHT22;1974;48.670;8.994;2022-09-24T09:00:37;13.10;99.90
3919;DHT22;1974;48.670;8.994;2022-09-24T09:03:08;13.10;99.90
3919;DHT22;1974;48.670;8.994;2022-09-24T09:05:49;13.10;99.90
3919;DHT22;1974;48.670;8.994;2022-09-24T09:08:24;13.10;99.90
3919;DHT22;1974;48.670;8.994;2022-09-24T09:10:57;13.10;99.90
3919;DHT22;1974;48.670;8.994;2022-09-24T09:13:30;13.20;99.90
3919;DHT22;1974;48.670;8.994;2022-09-24T09:16:00;13.20;99.90
3919;DHT22;1974;48.670;8.994;2022-09-24T09:18:32;13.20;99.90
3919;DHT22;1974;48.670;8.994;2022-09-24T09:21:09;13.20;99.90
3919;DHT22;1974;48.670;8.994;2022-09-24T09:23:42;13.20;99.90
3919;DHT22;1974;48.670;8.994;2022-09-24T09:26:11;13.30;99.90
3919;DHT22;1974;48.670;8.994;2022-09-24T09:28:38;13.20;99.90
3919;DHT22;1974;48.670;8.994;2022-09-24T09:31:12;13.30;99.90
3919;DHT22;1974;48.670;8.994;2022-09-24T09:33:55;13.20;99.90
3919;DHT22;1974;48.670;8.994;2022-09-24T09:36:38;13.30;99.90
3919;DHT22;1974;48.670;8.994;2022-09-24T09:39:21;13.30;99.90
3919;DHT22;1974;48.670;8.994;2022-09-24T09:41:52;13.40;99.90
3919;DHT22;1974;48.670;8.994;2022-09-24T09:44:24;13.50;99.90
3919;DHT22;1974;48.670;8.994;2022-09-24T09:46:54;13.50;99.90
3919;DHT22;1974;48.670;8.994;2022-09-24T09:49:25;13.60;99.90
3919;DHT22;1974;48.670;8.994;2022-09-24T09:51:55;13.70;99.90
3919;DHT22;1974;48.670;8.994;2022-09-24T09:54:34;13.80;99.90
3919;DHT22;1974;48.670;8.994;2022-09-24T09:57:02;13.80;99.90
3919;DHT22;1974;48.670;8.994;2022-09-24T09:59:29;13.90;99.90
3919;DHT22;1974;48.670;8.994;2022-09-24T10:01:58;13.90;99.90
3919;DHT22;1974;48.670;8.994;2022-09-24T10:04:31;13.90;99.90
3919;DHT22;1974;48.670;8.994;2022-09-24T10:07:08;13.80;99.90
3919;DHT22;1974;48.670;8.994;2022-09-24T10:09:36;13.80;99.90
3919;DHT22;1974;48.670;8.994;2022-09-24T10:12:07;13.80;99.90
3919;DHT22;1974;48.670;8.994;2022-09-24T10:14:34;13.80;99.90
3919;DHT22;1974;48.670;8.994;2022-09-24T10:17:01;13.70;99.90
3919;DHT22;1974;48.670;8.994;2022-09-24T10:19:32;13.60;99.90
3919;DHT22;1974;48.670;8.994;2022-09-24T10:22:09;13.60;99.90
3919;DHT22;1974;48.670;8.994;2022-09-24T10:24:41;13.50;99.90
3919;DHT22;1974;48.670;8.994;2022-09-24T10:27:12;13.50;99.90
3919;DHT22;1974;48.670;8.994;2022-09-24T10:29:40;13.50;99.90
3919;DHT22;1974;48.670;8.994;2022-09-24T10:32:25;13.50;99.90
3919;DHT22;1974;48.670;8.994;2022-09-24T10:34:55;13.50;99.90
3919;DHT22;1974;48.670;8.994;2022-09-24T10:37:24;13.50;99.90
3919;DHT22;1974;48.670;8.994;2022-09-24T10:39:58;13.50;99.90
3919;DHT22;1974;48.670;8.994;2022-09-24T10:42:27;13.50;99.90
3919;DHT22;1974;48.670;8.994;2022-09-24T10:44:55;13.60;99.90
3919;DHT22;1974;48.670;8.994;2022-09-24T10:47:26;13.60;99.90
3919;DHT22;1974;48.670;8.994;2022-09-24T10:50:17;13.70;99.90
3919;DHT22;1974;48.670;8.994;2022-09-24T10:52:51;13.80;99.90
3919;DHT22;1974;48.670;8.994;2022-09-24T10:55:27;13.90;99.90
3919;DHT22;1974;48.670;8.994;2022-09-24T10:58:01;14.00;99.90
3919;DHT22;1974;48.670;8.994;2022-09-24T11:00:37;14.30;99.90
3919;DHT22;1974;48.670;8.994;2022-09-24T11:03:41;14.40;99.90
3919;DHT22;1974;48.670;8.994;2022-09-24T11:06:16;14.50;99.90
3919;DHT22;1974;48.670;8.994;2022-09-24T11:09:04;14.50;99.90
3919;DHT22;1974;48.670;8.994;2022-09-24T11:11:40;14.50;99.90
3919;DHT22;1974;48.670;8.994;2022-09-24T11:14:22;14.50;99.90
3919;DHT22;1974;48.670;8.994;2022-09-24T11:20:06;14.40;99.90
3919;DHT22;1974;48.670;8.994;2022-09-24T11:22:46;14.50;99.90
3919;DHT22;1974;48.670;8.994;2022-09-24T11:25:32;14.50;99.90
3919;DHT22;1974;48.670;8.994;2022-09-24T11:28:14;14.60;99.90
3919;DHT22;1974;48.670;8.994;2022-09-24T11:30:48;14.70;99.90
3919;DHT22;1974;48.670;8.994;2022-09-24T11:33:32;14.80;99.90
3919;DHT22;1974;48.670;8.994;2022-09-24T11:36:19;14.80;99.90
3919;DHT22;1974;48.670;8.994;2022-09-24T11:39:05;14.90;99.90
3919;DHT22;1974;48.670;8.994;2022-09-24T11:41:43;14.90;99.90
3919;DHT22;1974;48.670;8.994;2022-09-24T11:47:22;15.00;99.90
3919;DHT22;1974;48.670;8.994;2022-09-24T11:50:03;15.00;99.90
3919;DHT22;1974;48.670;8.994;2022-09-24T11:52:35;15.00;99.90
3919;DHT22;1974;48.670;8.994;2022-09-24T11:55:11;15.00;99.90
3919;DHT22;1974;48.670;8.994;2022-09-24T11:57:43;15.00;99.90
3919;DHT22;1974;48.670;8.994;2022-09-24T12:00:15;15.00;99.90
3919;DHT22;1974;48.670;8.994;2022-09-24T12:02:46;15.00;99.90
3919;DHT22;1974;48.670;8.994;2022-09-24T12:05:19;15.00;99.90
3919;DHT22;1974;48.670;8.994;2022-09-24T12:07:52;15.00;99.90
3919;DHT22;1974;48.670;8.994;2022-09-24T12:10:29;15.00;99.90
3919;DHT22;1974;48.670;8.994;2022-09-24T12:13:05;15.00;99.90
3919;DHT22;1974;48.670;8.994;2022-09-24T12:15:45;15.00;99.90
3919;DHT22;1974;48.670;8.994;2022-09-24T12:18:17;15.00;99.90
3919;DHT22;1974;48.670;8.994;2022-09-24T12:20:49;15.00;99.90
3919;DHT22;1974;48.670;8.994;2022-09-24T12:23:21;15.00;99.90
3919;DHT22;1974;48.670;8.994;2022-09-24T12:25:49;14.90;99.90
3919;DHT22;1974;48.670;8.994;2022-09-24T12:28:20;14.90;99.90
3919;DHT22;1974;48.670;8.994;2022-09-24T12:31:10;14.90;99.90
3919;DHT22;1974;48.670;8.994;2022-09-24T12:34:01;14.90;99.90
3919;DHT22;1974;48.670;8.994;2022-09-24T12:36:41;14.90;99.90
3919;DHT22;1974;48.670;8.994;2022-09-24T12:39:17;14.90;99.90
3919;DHT22;1974;48.670;8.994;2022-09-24T12:41:46;14.80;99.90
3919;DHT22;1974;48.670;8.994;2022-09-24T12:44:20;14.90;99.90
3919;DHT22;1974;48.670;8.994;2022-09-24T12:46:50;14.80;99.90
3919;DHT22;1974;48.670;8.994;2022-09-24T12:49:26;14.90;99.90
3919;DHT22;1974;48.670;8.994;2022-09-24T12:51:56;14.80;99.90
3919;DHT22;1974;48.670;8.994;2022-09-24T12:54:27;14.90;99.90
3919;DHT22;1974;48.670;8.994;2022-09-24T12:57:05;14.90;99.90
3919;DHT22;1974;48.670;8.994;2022-09-24T12:59:45;14.90;99.90
3919;DHT22;1974;48.670;8.994;2022-09-24T13:02:15;14.90;99.90
3919;DHT22;1974;48.670;8.994;2022-09-24T13:04:44;14.90;99.90
3919;DHT22;1974;48.670;8.994;2022-09-24T13:07:29;15.00;99.90
3919;DHT22;1974;48.670;8.994;2022-09-24T13:09:56;15.00;99.90
3919;DHT22;1974;48.670;8.994;2022-09-24T13:12:30;14.90;99.90
3919;DHT22;1974;48.670;8.994;2022-09-24T13:15:00;14.90;99.90
3919;DHT22;1974;48.670;8.994;2022-09-24T13:17:29;14.90;99.90
3919;DHT22;1974;48.670;8.994;2022-09-24T13:19:59;14.80;99.90
3919;DHT22;1974;48.670;8.994;2022-09-24T13:22:30;14.80;99.90
3919;DHT22;1974;48.670;8.994;2022-09-24T13:25:18;14.90;99.90
3919;DHT22;1974;48.670;8.994;2022-09-24T13:27:56;14.90;99.90
3919;DHT22;1974;48.670;8.994;2022-09-24T13:30:35;14.90;99.90
3919;DHT22;1974;48.670;8.994;2022-09-24T13:33:14;14.80;99.90
3919;DHT22;1974;48.670;8.994;2022-09-24T13:35:54;14.80;99.90
3919;DHT22;1974;48.670;8.994;2022-09-24T13:38:29;14.80;99.90
3919;DHT22;1974;48.670;8.994;2022-09-24T13:41:00;14.70;99.90
3919;DHT22;1974;48.670;8.994;2022-09-24T13:43:36;14.80;99.90
3919;DHT22;1974;48.670;8.994;2022-09-24T13:46:14;14.90;99.90
3919;DHT22;1974;48.670;8.994;2022-09-24T13:48:44;15.00;99.90
3919;DHT22;1974;48.670;8.994;2022-09-24T13:51:13;15.00;99.90
3919;DHT22;1974;48.670;8.994;2022-09-24T13:53:44;15.10;99.90
3919;DHT22;1974;48.670;8.994;2022-09-24T13:56:16;15.10;99.90
3919;DHT22;1974;48.670;8.994;2022-09-24T13:58:43;15.10;99.90
3919;DHT22;1974;48.670;8.994;2022-09-24T14:01:14;15.10;99.90
3919;DHT22;1974;48.670;8.994;2022-09-24T14:03:50;15.10;99.90
3919;DHT22;1974;48.670;8.994;2022-09-24T14:06:19;15.00;99.90
3919;DHT22;1974;48.670;8.994;2022-09-24T14:08:47;15.00;99.90
3919;DHT22;1974;48.670;8.994;2022-09-24T14:11:17;14.90;99.90
3919;DHT22;1974;48.670;8.994;2022-09-24T14:13:44;14.80;99.90
3919;DHT22;1974;48.670;8.994;2022-09-24T14:16:16;14.80;99.90
3919;DHT22;1974;48.670;8.994;2022-09-24T14:18:44;14.80;99.90
3919;DHT22;1974;48.670;8.994;2022-09-24T14:21:14;14.80;99.90
3919;DHT22;1974;48.670;8.994;2022-09-24T14:23:47;14.80;99.90
3919;DHT22;1974;48.670;8.994;2022-09-24T14:26:22;14.80;99.90
3919;DHT22;1974;48.670;8.994;2022-09-24T14:28:52;14.80;99.90
3919;DHT22;1974;48.670;8.994;2022-09-24T14:31:21;14.80;99.90
3919;DHT22;1974;48.670;8.994;2022-09-24T14:33:47;14.80;99.90
3919;DHT22;1974;48.670;8.994;2022-09-24T14:36:15;14.80;99.90
3919;DHT22;1974;48.670;8.994;2022-09-24T14:38:50;14.80;99.90
3919;DHT22;1974;48.670;8.994;2022-09-24T14:41:21;14.80;99.90
3919;DHT22;1974;48.670;8.994;2022-09-24T14:43:52;14.80;99.90
3919;DHT22;1974;48.670;8.994;2022-09-24T14:46:23;14.80;99.90
3919;DHT22;1974;48.670;8.994;2022-09-24T14:49:03;14.90;99.90
3919;DHT22;1974;48.670;8.994;2022-09-24T14:51:30;14.90;99.90
3919;DHT22;1974;48.670;8.994;2022-09-24T14:53:59;15.00;99.90
3919;DHT22;1974;48.670;8.994;2022-09-24T14:56:28;15.00;99.90
3919;DHT22;1974;48.670;8.994;2022-09-24T14:58:55;15.10;99.90
3919;DHT22;1974;48.670;8.994;2022-09-24T15:01:28;15.00;99.90
3919;DHT22;1974;48.670;8.994;2022-09-24T15:03:57;15.10;99.90
3919;DHT22;1974;48.670;8.994;2022-09-24T15:06:26;15.00;99.90
3919;DHT22;1974;48.670;8.994;2022-09-24T15:09:01;15.00;99.90
3919;DHT22;1974;48.670;8.994;2022-09-24T15:11:30;15.10;99.90
3919;DHT22;1974;48.670;8.994;2022-09-24T15:14:02;15.10;99.90
3919;DHT22;1974;48.670;8.994;2022-09-24T15:16:38;15.10;99.90
3919;DHT22;1974;48.670;8.994;2022-09-24T15:19:16;15.20;99.90
3919;DHT22;1974;48.670;8.994;2022-09-24T15:21:45;15.20;99.90
3919;DHT22;1974;48.670;8.994;2022-09-24T15:24:13;15.10;99.90
3919;DHT22;1974;48.670;8.994;2022-09-24T15:26:41;15.10;99.90
3919;DHT22;1974;48.670;8.994;2022-09-24T15:29:16;15.10;99.90
3919;DHT22;1974;48.670;8.994;2022-09-24T15:31:45;15.10;99.90
3919;DHT22;1974;48.670;8.994;2022-09-24T15:34:12;15.10;99.90
3919;DHT22;1974;48.670;8.994;2022-09-24T15:36:39;15.10;99.90
3919;DHT22;1974;48.670;8.994;2022-09-24T15:39:06;15.00;99.90
3919;DHT22;1974;48.670;8.994;2022-09-24T15:41:33;15.00;99.90
3919;DHT22;1974;48.670;8.994;2022-09-24T15:44:00;15.00;99.90
3919;DHT22;1974;48.670;8.994;2022-09-24T15:46:26;15.00;99.90
3919;DHT22;1974;48.670;8.994;2022-09-24T15:48:54;14.90;99.90
3919;DHT22;1974;48.670;8.994;2022-09-24T15:51:22;14.90;99.90
3919;DHT22;1974;48.670;8.994;2022-09-24T15:53:49;14.90;99.90
3919;DHT22;1974;48.670;8.994;2022-09-24T15:56:16;14.90;99.90
3919;DHT22;1974;48.670;8.994;2022-09-24T15:58:43;14.90;99.90
3919;DHT22;1974;48.670;8.994;2022-09-24T16:01:14;15.00;99.90
3919;DHT22;1974;48.670;8.994;2022-09-24T16:03:42;14.90;99.90
3919;DHT22;1974;48.670;8.994;2022-09-24T16:06:11;14.90;99.90
3919;DHT22;1974;48.670;8.994;2022-09-24T16:08:39;14.90;99.90
3919;DHT22;1974;48.670;8.994;2022-09-24T16:11:06;15.00;99.90
3919;DHT22;1974;48.670;8.994;2022-09-24T16:13:33;15.00;99.90
3919;DHT22;1974;48.670;8.994;2022-09-24T16:16:00;15.00;99.90
3919;DHT22;1974;48.670;8.994;2022-09-24T16:18:27;14.90;99.90
3919;DHT22;1974;48.670;8.994;2022-09-24T16:20:54;14.90;99.90
3919;DHT22;1974;48.670;8.994;2022-09-24T16:23:22;14.90;99.90
3919;DHT22;1974;48.670;8.994;2022-09-24T16:25:56;14.80;99.90
3919;DHT22;1974;48.670;8.994;2022-09-24T16:28:24;14.80;99.90
3919;DHT22;1974;48.670;8.994;2022-09-24T16:30:51;14.80;99.90